createdAt,value
2022-10-22T00:00:54.402Z,96427.00
2022-10-22T00:03:20.809Z,96423.72
2022-10-22T00:05:47.631Z,96423.53
2022-10-22T00:08:14.352Z,96419.78
2022-10-22T00:10:41.115Z,96414.16
2022-10-22T00:13:07.652Z,96424.31
2022-10-22T00:15:34.039Z,96396.13
2022-10-22T00:18:00.435Z,96399.75
2022-10-22T00:20:26.822Z,96388.59
2022-10-22T00:22:53.192Z,96393.91
2022-10-22T00:25:19.661Z,96384.06
2022-10-22T00:27:46.029Z,96391.75
2022-10-22T00:30:12.804Z,96378.13
2022-10-22T00:32:39.436Z,96394.91
2022-10-22T00:35:06.754Z,96396.47
2022-10-22T00:37:33.379Z,96378.91
2022-10-22T00:39:59.787Z,96386.53
2022-10-22T00:42:30.332Z,96393.81
2022-10-22T00:45:02.748Z,96397.44
2022-10-22T00:47:33.427Z,96391.81
2022-10-22T00:50:00.669Z,96385.22
2022-10-22T00:52:28.347Z,96385.81
2022-10-22T00:54:54.823Z,96395.50
2022-10-22T00:57:22.406Z,96380.81
2022-10-22T00:59:49.013Z,96375.75
2022-10-22T01:02:16.612Z,96381.34
2022-10-22T01:04:43.389Z,96377.53
2022-10-22T01:07:20.193Z,96355.81
2022-10-22T01:10:14.104Z,96362.69
2022-10-22T01:12:50.699Z,96361.50
2022-10-22T01:15:33.988Z,96370.06
2022-10-22T01:18:21.690Z,96367.13
2022-10-22T01:21:17.360Z,96361.00
2022-10-22T01:23:58.994Z,96353.97
2022-10-22T01:26:36.260Z,96350.72
2022-10-22T01:29:11.356Z,96366.69
2022-10-22T01:31:47.775Z,96356.94
2022-10-22T01:34:18.182Z,96359.63
2022-10-22T01:36:46.885Z,96357.72
2022-10-22T01:39:15.194Z,96361.41
2022-10-22T01:41:47.573Z,96354.91
2022-10-22T01:44:43.487Z,96357.72
2022-10-22T01:47:22.287Z,96356.28
2022-10-22T01:49:51.402Z,96363.63
2022-10-22T01:52:54.633Z,96375.66
2022-10-22T01:55:32.919Z,96367.22
2022-10-22T01:58:10.299Z,96371.34
2022-10-22T02:00:44.617Z,96360.41
2022-10-22T02:03:22.766Z,96353.97
2022-10-22T02:05:55.495Z,96362.94
2022-10-22T02:08:30.452Z,96361.94
2022-10-22T02:10:59.294Z,96356.63
2022-10-22T02:13:36.075Z,96362.75
2022-10-22T02:16:06.913Z,96354.53
2022-10-22T02:18:38.849Z,96348.47
2022-10-22T02:23:38.975Z,96359.63
2022-10-22T02:26:30.054Z,96359.63
2022-10-22T02:29:14.053Z,96352.69
2022-10-22T02:31:44.411Z,96361.94
2022-10-22T02:34:16.282Z,96370.44
2022-10-22T02:36:46.843Z,96362.75
2022-10-22T02:41:49.011Z,96382.16
2022-10-22T02:44:15.488Z,96361.78
2022-10-22T02:46:43.259Z,96368.88
2022-10-22T02:49:09.653Z,96373.09
2022-10-22T02:51:36.032Z,96375.75
2022-10-22T02:54:02.722Z,96372.03
2022-10-22T02:56:29.204Z,96369.38
2022-10-22T02:58:55.583Z,96370.88
2022-10-22T03:01:22.069Z,96370.56
2022-10-22T03:03:48.510Z,96384.84
2022-10-22T03:06:15.045Z,96375.75
2022-10-22T03:08:41.971Z,96379.22
2022-10-22T03:11:08.795Z,96376.50
2022-10-22T03:13:35.449Z,96385.09
2022-10-22T03:16:02.048Z,96379.34
2022-10-22T03:18:28.507Z,96387.81
2022-10-22T03:21:18.216Z,96387.03
2022-10-22T03:23:44.736Z,96387.03
2022-10-22T03:26:13.420Z,96382.00
2022-10-22T03:28:41.222Z,96392.34
2022-10-22T03:31:07.769Z,96392.31
2022-10-22T03:33:34.263Z,96392.97
2022-10-22T03:36:00.840Z,96398.28
2022-10-22T03:38:27.278Z,96384.06
2022-10-22T03:40:53.795Z,96394.84
2022-10-22T03:43:20.283Z,96397.06
2022-10-22T03:45:46.879Z,96393.91
2022-10-22T03:48:13.752Z,96397.56
2022-10-22T03:50:40.101Z,96394.91
2022-10-22T03:53:08.542Z,96408.50
2022-10-22T03:55:34.900Z,96412.44
2022-10-22T03:58:01.263Z,96407.59
2022-10-22T04:00:27.725Z,96411.06
2022-10-22T04:02:54.194Z,96405.16
2022-10-22T04:05:20.542Z,96409.66
2022-10-22T04:07:46.914Z,96409.66
2022-10-22T04:10:13.287Z,96407.72
2022-10-22T04:12:39.712Z,96403.69
2022-10-22T04:15:06.631Z,96409.31
2022-10-22T04:17:37.174Z,96404.47
2022-10-22T04:20:04.882Z,96409.78
2022-10-22T04:22:34.230Z,96400.72
2022-10-22T04:25:00.721Z,96408.09
2022-10-22T04:27:31.083Z,96397.44
2022-10-22T04:29:57.500Z,96403.88
2022-10-22T04:32:24.344Z,96401.78
2022-10-22T04:34:50.715Z,96404.00
2022-10-22T04:37:17.246Z,96412.56
2022-10-22T04:39:43.631Z,96411.50
2022-10-22T04:42:10.045Z,96416.34
2022-10-22T04:44:36.390Z,96412.09
2022-10-22T04:47:02.767Z,96408.34
2022-10-22T04:49:29.176Z,96409.44
2022-10-22T04:51:55.631Z,96410.34
2022-10-22T04:54:22.311Z,96419.72
2022-10-22T04:56:48.700Z,96409.84
2022-10-22T04:59:15.100Z,96412.69
2022-10-22T05:01:44.512Z,96414.28
2022-10-22T05:04:13.070Z,96413.19
2022-10-22T05:06:39.845Z,96417.72
2022-10-22T05:09:11.362Z,96419.00
2022-10-22T05:11:41.587Z,96412.69
2022-10-22T05:14:10.001Z,96414.50
2022-10-22T05:16:38.095Z,96418.63
2022-10-22T05:19:05.082Z,96411.63
2022-10-22T05:21:31.528Z,96409.44
2022-10-22T05:23:59.862Z,96407.72
2022-10-22T05:26:28.160Z,96412.00
2022-10-22T05:28:54.810Z,96409.31
2022-10-22T05:31:21.273Z,96414.16
2022-10-22T05:33:47.849Z,96409.13
2022-10-22T05:36:18.194Z,96415.56
2022-10-22T05:38:45.201Z,96427.00
2022-10-22T05:41:14.762Z,96424.31
2022-10-22T05:43:41.457Z,96432.31
2022-10-22T05:46:11.643Z,96437.59
2022-10-22T05:48:38.642Z,96433.66
2022-10-22T05:51:07.363Z,96436.81
2022-10-22T05:53:35.475Z,96441.31
2022-10-22T05:56:07.533Z,96437.59
2022-10-22T05:58:35.164Z,96443.69
2022-10-22T06:01:11.340Z,96444.66
2022-10-22T06:03:37.757Z,96450.78
2022-10-22T06:06:22.960Z,96450.47
2022-10-22T06:08:51.581Z,96456.50
2022-10-22T06:11:19.644Z,96457.50
2022-10-22T06:13:46.559Z,96462.22
2022-10-22T06:16:13.478Z,96462.06
2022-10-22T06:18:40.069Z,96469.59
2022-10-22T06:21:08.281Z,96466.94
2022-10-22T06:23:35.466Z,96471.78
2022-10-22T06:26:02.807Z,96486.13
2022-10-22T06:28:29.249Z,96488.38
2022-10-22T06:30:58.018Z,96483.53
2022-10-22T06:33:24.981Z,96488.97
2022-10-22T06:35:51.395Z,96493.09
2022-10-22T06:38:17.995Z,96495.16
2022-10-22T06:40:44.959Z,96499.50
2022-10-22T06:43:13.141Z,96500.28
2022-10-22T06:45:39.834Z,96502.97
2022-10-22T06:48:07.232Z,96497.53
2022-10-22T06:50:36.564Z,96503.84
2022-10-22T06:53:02.994Z,96510.44
2022-10-22T06:55:29.365Z,96507.47
2022-10-22T06:57:55.921Z,96507.66
2022-10-22T07:00:22.694Z,96501.72
2022-10-22T07:02:56.437Z,96503.78
2022-10-22T07:05:25.614Z,96506.16
2022-10-22T07:07:51.981Z,96503.19
2022-10-22T07:10:18.350Z,96508.72
2022-10-22T07:12:44.768Z,96521.34
2022-10-22T07:15:11.509Z,96529.03
2022-10-22T07:17:38.022Z,96534.44
2022-10-22T07:20:05.091Z,96534.31
2022-10-22T07:22:31.547Z,96538.81
2022-10-22T07:24:57.913Z,96544.63
2022-10-22T07:27:24.331Z,96541.63
2022-10-22T07:29:50.705Z,96541.81
2022-10-22T07:32:18.801Z,96534.53
2022-10-22T07:34:48.054Z,96532.00
2022-10-22T07:37:14.491Z,96531.09
2022-10-22T07:39:40.890Z,96533.81
2022-10-22T07:42:07.296Z,96547.03
2022-10-22T07:44:33.654Z,96539.03
2022-10-22T07:47:00.036Z,96546.00
2022-10-22T07:49:26.500Z,96540.50
2022-10-22T07:51:52.859Z,96551.72
2022-10-22T07:54:19.277Z,96545.47
2022-10-22T07:56:45.644Z,96551.78
2022-10-22T07:59:12.018Z,96551.50
2022-10-22T08:01:38.526Z,96558.13
2022-10-22T08:04:08.128Z,96554.84
2022-10-22T08:06:34.894Z,96562.22
2022-10-22T08:09:01.362Z,96558.59
2022-10-22T08:11:27.895Z,96561.88
2022-10-22T08:13:54.281Z,96560.47
2022-10-22T08:16:20.653Z,96551.22
2022-10-22T08:18:47.081Z,96567.22
2022-10-22T08:21:13.585Z,96569.38
2022-10-22T08:23:40.134Z,96579.44
2022-10-22T08:26:06.510Z,96585.56
2022-10-22T08:28:36.853Z,96581.63
2022-10-22T08:31:05.558Z,96593.88
2022-10-22T08:33:31.999Z,96594.56
2022-10-22T08:35:58.549Z,96602.22
2022-10-22T08:38:25.014Z,96606.53
2022-10-22T08:41:06.014Z,96611.28
2022-10-22T08:43:41.849Z,96614.59
2022-10-22T08:46:32.194Z,96614.31
2022-10-22T08:49:01.719Z,96623.88
2022-10-22T08:51:33.046Z,96625.16
2022-10-22T08:54:36.929Z,96624.78
2022-10-22T08:57:12.181Z,96626.84
2022-10-22T09:00:29.689Z,96617.94
2022-10-22T09:03:22.021Z,96625.03
2022-10-22T09:05:59.205Z,96616.56
2022-10-22T09:08:25.871Z,96613.88
2022-10-22T09:11:02.016Z,96611.69
2022-10-22T09:13:29.148Z,96610.97
2022-10-22T09:16:00.257Z,96607.19
2022-10-22T09:18:33.357Z,96605.81
2022-10-22T09:21:05.953Z,96611.16
2022-10-22T09:23:44.152Z,96613.53
2022-10-22T09:26:15.934Z,96617.63
2022-10-22T09:28:43.216Z,96617.81
2022-10-22T09:31:14.307Z,96616.41
2022-10-22T09:33:42.453Z,96615.69
2022-10-22T09:36:13.870Z,96621.06
2022-10-22T09:38:46.807Z,96625.97
2022-10-22T09:41:14.040Z,96627.44
2022-10-22T09:43:40.504Z,96627.31
2022-10-22T09:46:15.358Z,96624.72
2022-10-22T09:48:47.058Z,96629.72
2022-10-22T09:51:24.149Z,96631.19
2022-10-22T09:53:59.095Z,96633.25
2022-10-22T09:56:27.809Z,96636.41
2022-10-22T09:58:57.688Z,96639.06
2022-10-22T10:01:31.556Z,96641.13
2022-10-22T10:04:10.525Z,96645.84
2022-10-22T10:06:40.408Z,96644.44
2022-10-22T10:09:21.787Z,96652.63
2022-10-22T10:12:01.045Z,96653.72
2022-10-22T10:14:56.649Z,96646.22
2022-10-22T10:17:32.107Z,96650.94
2022-10-22T10:20:29.854Z,96655.78
2022-10-22T10:23:13.395Z,96654.38
2022-10-22T10:25:46.285Z,96657.22
2022-10-22T10:28:29.079Z,96659.44
2022-10-22T10:31:07.570Z,96652.97
2022-10-22T10:34:01.826Z,96656.13
2022-10-22T10:36:56.103Z,96657.84
2022-10-22T10:39:49.889Z,96661.00
2022-10-22T10:42:44.411Z,96656.63
2022-10-22T10:45:37.373Z,96663.53
2022-10-22T10:48:12.968Z,96658.34
2022-10-22T10:50:58.164Z,96660.44
2022-10-22T10:54:18.676Z,96655.28
2022-10-22T10:56:50.436Z,96650.91
2022-10-22T10:59:31.533Z,96649.44
2022-10-22T11:02:35.270Z,96653.56
2022-10-22T11:05:26.520Z,96647.63
2022-10-22T11:08:00.060Z,96644.47
2022-10-22T11:10:48.807Z,96641.31
2022-10-22T11:13:36.899Z,96645.69
2022-10-22T11:16:32.613Z,96646.16
2022-10-22T11:19:05.961Z,96653.38
2022-10-22T11:21:44.128Z,96642.50
2022-10-22T11:24:26.955Z,96642.50
2022-10-22T11:27:00.756Z,96647.66
2022-10-22T11:29:49.336Z,96645.31
2022-10-22T11:32:20.003Z,96638.88
2022-10-22T11:34:54.303Z,96642.31
2022-10-22T11:37:21.943Z,96651.31
2022-10-22T11:39:59.698Z,96643.47
2022-10-22T11:42:38.769Z,96644.47
2022-10-22T11:45:13.271Z,96646.63
2022-10-22T11:48:10.374Z,96637.34
2022-10-22T11:50:48.963Z,96637.72
2022-10-22T11:53:15.280Z,96641.66
2022-10-22T11:55:45.863Z,96637.09
2022-10-22T11:58:31.931Z,96630.78
2022-10-22T12:01:21.399Z,96627.03
2022-10-22T12:03:59.807Z,96621.69
2022-10-22T12:06:27.787Z,96621.84
2022-10-22T12:08:54.382Z,96630.81
2022-10-22T12:11:26.057Z,96633.66
2022-10-22T12:14:14.155Z,96626.91
2022-10-22T12:17:02.226Z,96626.59
2022-10-22T12:19:37.380Z,96622.03
2022-10-22T12:22:09.813Z,96622.53
2022-10-22T12:24:44.580Z,96626.47
2022-10-22T12:27:37.361Z,96628.19
2022-10-22T12:30:19.046Z,96625.97
2022-10-22T12:32:45.963Z,96620.19
2022-10-22T12:35:19.722Z,96623.78
2022-10-22T12:37:54.411Z,96618.16
2022-10-22T12:40:26.660Z,96623.50
2022-10-22T12:42:54.395Z,96624.56
2022-10-22T12:45:21.822Z,96616.09
2022-10-22T12:47:50.811Z,96612.75
2022-10-22T12:50:25.397Z,96606.69
2022-10-22T12:52:54.348Z,96607.63
2022-10-22T12:55:25.813Z,96611.69
2022-10-22T12:57:52.985Z,96613.28
2022-10-22T13:00:27.987Z,96611.88
2022-10-22T13:02:59.167Z,96606.81
2022-10-22T13:05:28.036Z,96605.75
2022-10-22T13:08:08.578Z,96611.53
2022-10-22T13:10:38.342Z,96601.66
2022-10-22T13:13:07.900Z,96607.47
2022-10-22T13:15:38.042Z,96602.59
2022-10-22T13:18:07.258Z,96602.59
2022-10-22T13:20:37.282Z,96599.63
2022-10-22T13:23:06.161Z,96607.94
2022-10-22T13:25:35.550Z,96603.69
2022-10-22T13:28:10.820Z,96607.31
2022-10-22T13:30:38.996Z,96607.31
2022-10-22T13:33:26.857Z,96602.44
2022-10-22T13:35:54.420Z,96601.34
2022-10-22T13:38:26.177Z,96600.06
2022-10-22T13:40:52.771Z,96604.16
2022-10-22T13:43:19.818Z,96608.41
2022-10-22T13:45:48.601Z,96606.81
2022-10-22T13:48:16.826Z,96607.47
2022-10-22T13:50:43.207Z,96613.44
2022-10-22T13:53:18.816Z,96605.72
2022-10-22T13:55:45.608Z,96611.84
2022-10-22T13:58:14.732Z,96612.31
2022-10-22T14:00:45.334Z,96612.81
2022-10-22T14:03:15.146Z,96622.38
2022-10-22T14:05:42.344Z,96616.88
2022-10-22T14:08:13.757Z,96616.09
2022-10-22T14:10:40.267Z,96619.09
2022-10-22T14:13:07.943Z,96622.09
2022-10-22T14:15:34.699Z,96615.47
2022-10-22T14:18:01.530Z,96620.03
2022-10-22T14:20:30.532Z,96622.38
2022-10-22T14:23:02.487Z,96626.47
2022-10-22T14:25:31.422Z,96624.41
2022-10-22T14:27:57.808Z,96627.88
2022-10-22T14:30:25.957Z,96625.03
2022-10-22T14:32:52.667Z,96633.06
2022-10-22T14:35:22.308Z,96636.38
2022-10-22T14:37:48.760Z,96643.91
2022-10-22T14:40:19.130Z,96642.16
2022-10-22T14:42:47.654Z,96639.97
2022-10-22T14:45:26.476Z,96636.66
2022-10-22T14:47:57.292Z,96639.78
2022-10-22T14:50:24.642Z,96646.72
2022-10-22T14:52:51.847Z,96644.53
2022-10-22T14:55:19.320Z,96642.16
2022-10-22T14:57:46.568Z,96649.38
2022-10-22T15:00:16.156Z,96639.78
2022-10-22T15:02:43.083Z,96643.56
2022-10-22T15:05:10.252Z,96653.13
2022-10-22T15:07:37.503Z,96654.88
2022-10-22T15:10:05.422Z,96652.97
2022-10-22T15:12:31.982Z,96654.38
2022-10-22T15:14:58.374Z,96647.00
2022-10-22T15:17:25.116Z,96658.47
2022-10-22T15:19:53.044Z,96669.44
2022-10-22T15:22:19.660Z,96680.63
2022-10-22T15:24:46.162Z,96678.56
2022-10-22T15:27:15.487Z,96679.66
2022-10-22T15:29:42.438Z,96682.63
2022-10-22T15:32:12.697Z,96678.69
2022-10-22T15:34:39.851Z,96680.88
2022-10-22T15:37:08.981Z,96686.84
2022-10-22T15:39:35.840Z,96691.38
2022-10-22T15:42:02.325Z,96688.53
2022-10-22T15:44:31.319Z,96685.69
2022-10-22T15:46:58.707Z,96690.25
2022-10-22T15:49:27.202Z,96684.72
2022-10-22T15:51:54.384Z,96688.31
2022-10-22T15:54:24.037Z,96686.56
2022-10-22T15:56:50.984Z,96689.34
2022-10-22T15:59:18.161Z,96693.41
2022-10-22T16:01:46.399Z,96703.16
2022-10-22T16:04:12.898Z,96700.00
2022-10-22T16:06:42.667Z,96694.00
2022-10-22T16:09:15.135Z,96698.06
2022-10-22T16:11:42.256Z,96698.06
2022-10-22T16:14:11.168Z,96701.94
2022-10-22T16:16:39.855Z,96703.94
2022-10-22T16:19:06.487Z,96701.09
2022-10-22T16:21:32.932Z,96711.88
2022-10-22T16:24:05.943Z,96716.06
2022-10-22T16:26:33.172Z,96718.34
2022-10-22T16:28:59.706Z,96726.28
2022-10-22T16:31:26.326Z,96730.13
2022-10-22T16:33:52.846Z,96732.03
2022-10-22T16:36:20.613Z,96730.81
2022-10-22T16:38:48.232Z,96736.16
2022-10-22T16:41:21.803Z,96745.53
2022-10-22T16:43:51.095Z,96738.75
2022-10-22T16:46:22.073Z,96747.97
2022-10-22T16:48:52.916Z,96748.56
2022-10-22T16:51:25.660Z,96753.91
2022-10-22T16:53:53.071Z,96760.63
2022-10-22T16:56:19.929Z,96771.13
2022-10-22T16:58:52.314Z,96770.53
2022-10-22T17:01:21.720Z,96782.91
2022-10-22T17:03:48.133Z,96783.00
2022-10-22T17:06:14.748Z,96786.28
2022-10-22T17:08:42.360Z,96794.16
2022-10-22T17:11:11.369Z,96788.72
2022-10-22T17:13:39.628Z,96782.31
2022-10-22T17:16:09.004Z,96789.59
2022-10-22T17:18:37.690Z,96806.50
2022-10-22T17:21:05.326Z,96803.25
2022-10-22T17:23:31.828Z,96808.84
2022-10-22T17:26:07.464Z,96810.34
2022-10-22T17:28:36.262Z,96806.97
2022-10-22T17:31:06.926Z,96808.66
2022-10-22T17:33:34.811Z,96815.28
2022-10-22T17:36:01.257Z,96820.63
2022-10-22T17:38:28.144Z,96829.56
2022-10-22T17:40:54.998Z,96831.31
2022-10-22T17:43:21.472Z,96836.78
2022-10-22T17:45:47.860Z,96840.22
2022-10-22T17:48:14.236Z,96836.78
2022-10-22T17:50:43.342Z,96834.97
2022-10-22T17:53:12.247Z,96843.47
2022-10-22T17:55:38.684Z,96847.22
2022-10-22T17:58:05.228Z,96840.91
2022-10-22T18:00:33.367Z,96841.06
2022-10-22T18:03:01.127Z,96837.13
2022-10-22T18:05:28.009Z,96842.06
2022-10-22T18:07:56.082Z,96843.94
2022-10-22T18:10:23.250Z,96849.06
2022-10-22T18:12:49.785Z,96846.16
2022-10-22T18:15:16.732Z,96854.66
2022-10-22T18:17:43.264Z,96857.66
2022-10-22T18:20:10.415Z,96860.59
2022-10-22T18:22:36.849Z,96865.91
2022-10-22T18:25:03.443Z,96858.19
2022-10-22T18:27:30.292Z,96866.00
2022-10-22T18:29:56.655Z,96866.44
2022-10-22T18:32:23.037Z,96871.97
2022-10-22T18:34:49.542Z,96873.72
2022-10-22T18:37:15.947Z,96889.41
2022-10-22T18:39:42.310Z,96898.75
2022-10-22T18:42:08.736Z,96897.53
2022-10-22T18:44:35.831Z,96904.88
2022-10-22T18:47:02.240Z,96906.44
2022-10-22T18:49:28.679Z,96906.81
2022-10-22T18:51:55.040Z,96909.03
2022-10-22T18:54:23.972Z,96910.31
2022-10-22T18:56:51.271Z,96918.25
2022-10-22T18:59:23.994Z,96922.41
2022-10-22T19:01:55.563Z,96914.81
2022-10-22T19:04:22.185Z,96915.97
2022-10-22T19:06:48.686Z,96920.66
2022-10-22T19:09:15.711Z,96920.41
2022-10-22T19:11:45.038Z,96914.31
2022-10-22T19:14:13.777Z,96908.84
2022-10-22T19:16:40.302Z,96911.91
2022-10-22T19:19:07.895Z,96911.91
2022-10-22T19:21:34.853Z,96923.06
2022-10-22T19:24:01.978Z,96924.81
2022-10-22T19:26:29.771Z,96921.09
2022-10-22T19:28:59.641Z,96928.50
2022-10-22T19:31:27.830Z,96920.31
2022-10-22T19:33:56.968Z,96926.91
2022-10-22T19:36:25.236Z,96920.31
2022-10-22T19:38:52.013Z,96917.44
2022-10-22T19:41:21.782Z,96927.47
2022-10-22T19:43:50.787Z,96924.16
2022-10-22T19:46:18.430Z,96922.97
2022-10-22T19:51:22.002Z,96921.81
2022-10-22T19:53:49.638Z,96922.00
2022-10-22T19:56:18.961Z,96926.38
2022-10-22T19:58:45.591Z,96931.13
2022-10-22T20:01:14.692Z,96939.84
2022-10-22T20:03:41.665Z,96951.72
2022-10-22T20:06:10.288Z,96946.84
2022-10-22T20:08:40.375Z,96954.09
2022-10-22T20:11:15.750Z,96952.47
2022-10-22T20:13:43.595Z,96959.94
2022-10-22T20:16:15.522Z,96950.59
2022-10-22T20:18:42.121Z,96948.34
2022-10-22T20:21:12.244Z,96944.78
2022-10-22T20:23:38.629Z,96954.34
2022-10-22T20:26:05.343Z,96952.25
2022-10-22T20:28:32.458Z,96945.56
2022-10-22T20:30:58.895Z,96942.88
2022-10-22T20:33:25.252Z,96949.66
2022-10-22T20:35:59.738Z,96948.28
2022-10-22T20:38:26.471Z,96948.28
2022-10-22T20:41:01.033Z,96949.28
2022-10-22T20:43:27.416Z,96953.50
2022-10-22T20:45:54.661Z,96956.13
2022-10-22T20:48:21.619Z,96955.09
2022-10-22T20:50:48.001Z,96951.28
2022-10-22T20:53:16.903Z,96953.72
2022-10-22T20:55:43.467Z,96957.13
2022-10-22T20:58:10.237Z,96957.69
2022-10-22T21:00:39.126Z,96963.09
2022-10-22T21:03:06.437Z,96970.28
2022-10-22T21:05:34.554Z,96967.34
2022-10-22T21:08:02.153Z,96972.94
2022-10-22T21:10:32.381Z,96966.56
2022-10-22T21:12:59.655Z,96959.63
2022-10-22T21:15:27.071Z,96970.28
2022-10-22T21:17:53.628Z,96964.44
2022-10-22T21:20:22.419Z,96964.25
2022-10-22T21:22:51.195Z,96967.03
2022-10-22T21:25:17.682Z,96964.03
2022-10-22T21:27:44.077Z,96960.84
2022-10-22T21:30:10.832Z,96970.13
2022-10-22T21:32:37.191Z,96981.13
2022-10-22T21:35:03.763Z,96988.63
2022-10-22T21:37:30.257Z,97003.25
2022-10-22T21:39:56.734Z,97003.59
2022-10-22T21:42:23.074Z,97010.72
2022-10-22T21:44:49.530Z,97014.09
2022-10-22T21:47:15.894Z,97014.31
2022-10-22T21:49:42.297Z,97020.88
2022-10-22T21:52:08.752Z,97022.47
2022-10-22T21:54:37.273Z,97026.22
2022-10-22T21:57:04.202Z,97024.06
2022-10-22T21:59:32.172Z,97022.75
2022-10-22T22:02:03.405Z,97030.03
2022-10-22T22:04:32.691Z,97025.53
2022-10-22T22:06:59.053Z,97020.94
2022-10-22T22:09:25.529Z,97028.88
2022-10-22T22:11:51.887Z,97033.72
2022-10-22T22:14:18.269Z,97026.78
2022-10-22T22:16:44.633Z,97025.94
2022-10-22T22:19:11.098Z,97012.41
2022-10-22T22:21:39.283Z,97015.78
2022-10-22T22:24:06.596Z,97011.81
2022-10-22T22:26:33.373Z,97005.94
2022-10-22T22:29:00.730Z,97006.44
2022-10-22T22:31:29.726Z,97005.34
2022-10-22T22:34:00.153Z,97004.03
2022-10-22T22:36:26.543Z,97006.97
2022-10-22T22:38:56.765Z,97000.28
2022-10-22T22:41:23.426Z,97004.41
2022-10-22T22:43:49.896Z,97010.81
2022-10-22T22:46:16.312Z,97009.22
2022-10-22T22:48:42.806Z,97009.00
2022-10-22T22:51:10.191Z,97007.34
2022-10-22T22:53:36.548Z,97011.31
2022-10-22T22:56:07.394Z,97008.44
2022-10-22T22:58:35.149Z,97004.47
2022-10-22T23:01:13.480Z,96993.03
2022-10-22T23:03:40.482Z,96993.84
2022-10-22T23:06:07.718Z,97000.53
2022-10-22T23:08:34.578Z,96999.78
2022-10-22T23:11:06.157Z,96999.16
2022-10-22T23:13:33.988Z,96999.09
2022-10-22T23:16:04.424Z,96995.84
2022-10-22T23:18:30.778Z,96983.38
2022-10-22T23:20:57.156Z,96984.75
2022-10-22T23:23:23.533Z,96988.50
2022-10-22T23:25:49.954Z,96986.47
2022-10-22T23:28:16.354Z,96983.72
2022-10-22T23:30:44.963Z,96988.72
2022-10-22T23:33:11.856Z,96986.31
2022-10-22T23:35:41.792Z,96995.34
2022-10-22T23:38:08.441Z,96999.81
2022-10-22T23:40:34.892Z,96999.28
2022-10-22T23:43:01.383Z,96988.28
2022-10-22T23:45:27.754Z,96985.53
2022-10-22T23:47:54.115Z,97000.66
2022-10-22T23:50:20.504Z,96996.38
2022-10-22T23:52:46.933Z,97005.94
2022-10-22T23:55:13.407Z,97002.75
2022-10-22T23:57:39.760Z,97009.22
